sensor_id;sensor_type;location;lat;lon;timestamp;temperature;humidity
45339;DHT22;31071;51.478;5.710;2023-03-01T00:02:05;-1.00;99.90
45339;DHT22;31071;51.478;5.710;2023-03-01T00:04:30;-0.90;99.90
45339;DHT22;31071;51.478;5.710;2023-03-01T00:06:56;-0.90;99.90
45339;DHT22;31071;51.478;5.710;2023-03-01T00:09:22;-0.90;99.90
45339;DHT22;31071;51.478;5.710;2023-03-01T00:11:47;-0.90;99.90
45339;DHT22;31071;51.478;5.710;2023-03-01T00:14:13;-1.20;99.90
45339;DHT22;31071;51.478;5.710;2023-03-01T00:16:41;-1.00;99.90
45339;DHT22;31071;51.478;5.710;2023-03-01T00:19:13;-1.00;99.90
45339;DHT22;31071;51.478;5.710;2023-03-01T00:21:40;-1.00;99.90
45339;DHT22;31071;51.478;5.710;2023-03-01T00:24:06;-1.10;99.90
45339;DHT22;31071;51.478;5.710;2023-03-01T00:26:32;-1.10;99.90
45339;DHT22;31071;51.478;5.710;2023-03-01T00:28:59;-1.10;99.90
45339;DHT22;31071;51.478;5.710;2023-03-01T00:31:29;-1.00;99.90
45339;DHT22;31071;51.478;5.710;2023-03-01T00:33:56;-1.10;99.90
45339;DHT22;31071;51.478;5.710;2023-03-01T00:36:24;-0.80;99.90
45339;DHT22;31071;51.478;5.710;2023-03-01T00:38:50;-1.10;99.90
45339;DHT22;31071;51.478;5.710;2023-03-01T00:41:17;-1.10;99.90
45339;DHT22;31071;51.478;5.710;2023-03-01T00:43:43;-1.10;99.90
45339;DHT22;31071;51.478;5.710;2023-03-01T00:46:11;-1.30;99.90
45339;DHT22;31071;51.478;5.710;2023-03-01T00:48:37;-1.30;99.90
45339;DHT22;31071;51.478;5.710;2023-03-01T00:51:08;-0.80;99.90
45339;DHT22;31071;51.478;5.710;2023-03-01T00:53:34;-1.40;99.90
45339;DHT22;31071;51.478;5.710;2023-03-01T00:55:59;-1.40;99.90
45339;DHT22;31071;51.478;5.710;2023-03-01T00:58:26;-1.80;99.90
45339;DHT22;31071;51.478;5.710;2023-03-01T01:00:51;-1.40;99.90
45339;DHT22;31071;51.478;5.710;2023-03-01T01:03:20;-1.40;99.90
45339;DHT22;31071;51.478;5.710;2023-03-01T01:05:46;-1.50;99.90
45339;DHT22;31071;51.478;5.710;2023-03-01T01:08:12;-1.40;99.90
45339;DHT22;31071;51.478;5.710;2023-03-01T01:10:37;-1.50;99.90
45339;DHT22;31071;51.478;5.710;2023-03-01T01:13:03;-1.50;99.90
45339;DHT22;31071;51.478;5.710;2023-03-01T01:15:33;-1.30;99.90
45339;DHT22;31071;51.478;5.710;2023-03-01T01:17:58;-0.90;99.90
45339;DHT22;31071;51.478;5.710;2023-03-01T01:20:24;-0.90;99.90
45339;DHT22;31071;51.478;5.710;2023-03-01T01:22:49;-1.20;99.90
45339;DHT22;31071;51.478;5.710;2023-03-01T01:25:16;-0.90;99.90
45339;DHT22;31071;51.478;5.710;2023-03-01T01:27:42;-1.60;99.90
45339;DHT22;31071;51.478;5.710;2023-03-01T01:30:08;-1.50;99.90
45339;DHT22;31071;51.478;5.710;2023-03-01T01:32:33;-1.60;99.90
45339;DHT22;31071;51.478;5.710;2023-03-01T01:34:59;-1.60;99.90
45339;DHT22;31071;51.478;5.710;2023-03-01T01:37:24;-1.60;99.90
45339;DHT22;31071;51.478;5.710;2023-03-01T01:39:59;-1.70;99.90
45339;DHT22;31071;51.478;5.710;2023-03-01T01:42:26;-1.60;99.90
45339;DHT22;31071;51.478;5.710;2023-03-01T01:45:28;-1.00;99.90
45339;DHT22;31071;51.478;5.710;2023-03-01T01:47:56;-1.70;99.90
45339;DHT22;31071;51.478;5.710;2023-03-01T01:50:23;-1.60;99.90
45339;DHT22;31071;51.478;5.710;2023-03-01T01:52:50;-1.60;99.90
45339;DHT22;31071;51.478;5.710;2023-03-01T01:55:24;-1.60;99.90
45339;DHT22;31071;51.478;5.710;2023-03-01T01:57:55;-1.70;99.90
45339;DHT22;31071;51.478;5.710;2023-03-01T02:00:27;-1.70;99.90
45339;DHT22;31071;51.478;5.710;2023-03-01T02:03:03;-1.70;99.90
45339;DHT22;31071;51.478;5.710;2023-03-01T02:08:17;-1.70;99.90
45339;DHT22;31071;51.478;5.710;2023-03-01T02:10:44;-1.70;99.90
45339;DHT22;31071;51.478;5.710;2023-03-01T02:13:11;-1.50;99.90
45339;DHT22;31071;51.478;5.710;2023-03-01T02:15:38;-1.70;99.90
45339;DHT22;31071;51.478;5.710;2023-03-01T02:18:05;-1.80;99.90
45339;DHT22;31071;51.478;5.710;2023-03-01T02:23:05;-1.70;99.90
45339;DHT22;31071;51.478;5.710;2023-03-01T02:25:51;-1.50;99.90
45339;DHT22;31071;51.478;5.710;2023-03-01T02:30:56;-1.90;99.90
45339;DHT22;31071;51.478;5.710;2023-03-01T02:33:41;-1.90;99.90
45339;DHT22;31071;51.478;5.710;2023-03-01T02:36:18;-1.20;99.90
45339;DHT22;31071;51.478;5.710;2023-03-01T02:38:45;-1.90;99.90
45339;DHT22;31071;51.478;5.710;2023-03-01T02:41:15;-1.90;99.90
45339;DHT22;31071;51.478;5.710;2023-03-01T02:43:41;-1.90;99.90
45339;DHT22;31071;51.478;5.710;2023-03-01T02:46:18;-1.90;99.90
45339;DHT22;31071;51.478;5.710;2023-03-01T02:48:49;-2.00;99.90
45339;DHT22;31071;51.478;5.710;2023-03-01T02:51:26;-2.10;99.90
45339;DHT22;31071;51.478;5.710;2023-03-01T02:54:12;-1.80;99.90
45339;DHT22;31071;51.478;5.710;2023-03-01T02:56:41;-2.10;99.90
45339;DHT22;31071;51.478;5.710;2023-03-01T02:59:08;-2.20;99.90
45339;DHT22;31071;51.478;5.710;2023-03-01T03:01:34;-1.60;99.90
45339;DHT22;31071;51.478;5.710;2023-03-01T03:04:08;-2.10;99.90
45339;DHT22;31071;51.478;5.710;2023-03-01T03:06:35;-2.00;99.90
45339;DHT22;31071;51.478;5.710;2023-03-01T03:09:01;-2.00;99.90
45339;DHT22;31071;51.478;5.710;2023-03-01T03:11:27;-2.00;99.90
45339;DHT22;31071;51.478;5.710;2023-03-01T03:13:53;-1.80;99.90
45339;DHT22;31071;51.478;5.710;2023-03-01T03:16:19;-1.90;99.90
45339;DHT22;31071;51.478;5.710;2023-03-01T03:18:45;-2.00;99.90
45339;DHT22;31071;51.478;5.710;2023-03-01T03:21:12;-2.10;99.90
45339;DHT22;31071;51.478;5.710;2023-03-01T03:23:37;-2.10;99.90
45339;DHT22;31071;51.478;5.710;2023-03-01T03:26:04;-1.60;99.90
45339;DHT22;31071;51.478;5.710;2023-03-01T03:28:31;-2.00;99.90
45339;DHT22;31071;51.478;5.710;2023-03-01T03:30:57;-2.10;99.90
45339;DHT22;31071;51.478;5.710;2023-03-01T03:33:24;-2.20;99.90
45339;DHT22;31071;51.478;5.710;2023-03-01T03:35:50;-1.80;99.90
45339;DHT22;31071;51.478;5.710;2023-03-01T03:38:17;-1.80;99.90
45339;DHT22;31071;51.478;5.710;2023-03-01T03:40:46;-2.10;99.90
45339;DHT22;31071;51.478;5.710;2023-03-01T03:43:14;-2.10;99.90
45339;DHT22;31071;51.478;5.710;2023-03-01T03:45:40;-2.10;99.90
45339;DHT22;31071;51.478;5.710;2023-03-01T03:48:08;-2.20;99.90
45339;DHT22;31071;51.478;5.710;2023-03-01T03:50:35;-2.20;99.90
45339;DHT22;31071;51.478;5.710;2023-03-01T03:53:03;-2.20;99.90
45339;DHT22;31071;51.478;5.710;2023-03-01T03:55:29;-2.20;99.90
45339;DHT22;31071;51.478;5.710;2023-03-01T03:57:57;-2.20;99.90
45339;DHT22;31071;51.478;5.710;2023-03-01T04:00:24;-2.30;99.90
45339;DHT22;31071;51.478;5.710;2023-03-01T04:02:50;-2.30;99.90
45339;DHT22;31071;51.478;5.710;2023-03-01T04:05:17;-2.10;99.90
45339;DHT22;31071;51.478;5.710;2023-03-01T04:07:44;-2.00;99.90
45339;DHT22;31071;51.478;5.710;2023-03-01T04:10:13;-2.40;99.90
45339;DHT22;31071;51.478;5.710;2023-03-01T04:12:39;-2.30;99.90
45339;DHT22;31071;51.478;5.710;2023-03-01T04:15:07;-2.30;99.90
45339;DHT22;31071;51.478;5.710;2023-03-01T04:17:43;-2.30;99.90
45339;DHT22;31071;51.478;5.710;2023-03-01T04:20:11;-2.30;99.90
45339;DHT22;31071;51.478;5.710;2023-03-01T04:22:38;-2.40;99.90
45339;DHT22;31071;51.478;5.710;2023-03-01T04:25:04;-2.40;99.90
45339;DHT22;31071;51.478;5.710;2023-03-01T04:27:33;-2.40;99.90
45339;DHT22;31071;51.478;5.710;2023-03-01T04:29:58;-2.40;99.90
45339;DHT22;31071;51.478;5.710;2023-03-01T04:32:24;-2.50;99.90
45339;DHT22;31071;51.478;5.710;2023-03-01T04:34:49;-2.40;99.90
45339;DHT22;31071;51.478;5.710;2023-03-01T04:37:15;-2.40;99.90
45339;DHT22;31071;51.478;5.710;2023-03-01T04:39:41;-2.50;99.90
45339;DHT22;31071;51.478;5.710;2023-03-01T04:42:11;-2.40;99.90
45339;DHT22;31071;51.478;5.710;2023-03-01T04:44:37;-2.50;99.90
45339;DHT22;31071;51.478;5.710;2023-03-01T04:47:03;-2.50;99.90
45339;DHT22;31071;51.478;5.710;2023-03-01T04:49:28;-2.60;99.90
45339;DHT22;31071;51.478;5.710;2023-03-01T04:51:54;-2.20;99.90
45339;DHT22;31071;51.478;5.710;2023-03-01T04:54:19;-2.20;99.90
45339;DHT22;31071;51.478;5.710;2023-03-01T04:56:45;-2.60;99.90
45339;DHT22;31071;51.478;5.710;2023-03-01T04:59:10;-2.60;99.90
45339;DHT22;31071;51.478;5.710;2023-03-01T05:01:39;-2.60;99.90
45339;DHT22;31071;51.478;5.710;2023-03-01T05:04:04;-2.60;99.90
45339;DHT22;31071;51.478;5.710;2023-03-01T05:06:30;-2.60;99.90
45339;DHT22;31071;51.478;5.710;2023-03-01T05:08:56;-2.60;99.90
45339;DHT22;31071;51.478;5.710;2023-03-01T05:11:22;-2.60;99.90
45339;DHT22;31071;51.478;5.710;2023-03-01T05:13:47;-2.60;99.90
45339;DHT22;31071;51.478;5.710;2023-03-01T05:16:15;-2.60;99.90
45339;DHT22;31071;51.478;5.710;2023-03-01T05:18:42;-2.50;99.90
45339;DHT22;31071;51.478;5.710;2023-03-01T05:21:13;-2.50;99.90
45339;DHT22;31071;51.478;5.710;2023-03-01T05:23:41;-2.50;99.90
45339;DHT22;31071;51.478;5.710;2023-03-01T05:26:07;-3.00;99.90
45339;DHT22;31071;51.478;5.710;2023-03-01T05:28:33;-2.40;99.90
45339;DHT22;31071;51.478;5.710;2023-03-01T05:30:59;-2.50;99.90
45339;DHT22;31071;51.478;5.710;2023-03-01T05:33:25;-2.60;99.90
45339;DHT22;31071;51.478;5.710;2023-03-01T05:35:52;-2.60;99.90
45339;DHT22;31071;51.478;5.710;2023-03-01T05:38:19;-2.20;99.90
45339;DHT22;31071;51.478;5.710;2023-03-01T05:40:46;-2.50;99.90
45339;DHT22;31071;51.478;5.710;2023-03-01T05:43:14;-2.70;99.90
45339;DHT22;31071;51.478;5.710;2023-03-01T05:45:40;-2.30;99.90
45339;DHT22;31071;51.478;5.710;2023-03-01T05:48:06;-1.60;99.90
45339;DHT22;31071;51.478;5.710;2023-03-01T05:50:34;-2.80;99.90
45339;DHT22;31071;51.478;5.710;2023-03-01T05:53:01;-2.90;99.90
45339;DHT22;31071;51.478;5.710;2023-03-01T05:55:29;-2.40;99.90
45339;DHT22;31071;51.478;5.710;2023-03-01T05:57:58;-2.90;99.90
45339;DHT22;31071;51.478;5.710;2023-03-01T06:00:23;-2.90;99.90
45339;DHT22;31071;51.478;5.710;2023-03-01T06:02:49;-2.90;99.90
45339;DHT22;31071;51.478;5.710;2023-03-01T06:05:17;-3.00;99.90
45339;DHT22;31071;51.478;5.710;2023-03-01T06:07:43;-3.00;99.90
45339;DHT22;31071;51.478;5.710;2023-03-01T06:10:10;-3.00;99.90
45339;DHT22;31071;51.478;5.710;2023-03-01T06:12:37;-3.00;99.90
45339;DHT22;31071;51.478;5.710;2023-03-01T06:15:05;-2.50;99.90
45339;DHT22;31071;51.478;5.710;2023-03-01T06:17:32;-3.00;99.90
45339;DHT22;31071;51.478;5.710;2023-03-01T06:20:06;-3.00;99.90
45339;DHT22;31071;51.478;5.710;2023-03-01T06:22:32;-3.10;99.90
45339;DHT22;31071;51.478;5.710;2023-03-01T06:24:57;-3.10;99.90
45339;DHT22;31071;51.478;5.710;2023-03-01T06:27:23;-3.10;99.90
45339;DHT22;31071;51.478;5.710;2023-03-01T06:29:48;-3.10;99.90
45339;DHT22;31071;51.478;5.710;2023-03-01T06:32:14;-3.00;99.90
45339;DHT22;31071;51.478;5.710;2023-03-01T06:34:39;-2.70;99.90
45339;DHT22;31071;51.478;5.710;2023-03-01T06:37:06;-3.00;99.90
45339;DHT22;31071;51.478;5.710;2023-03-01T06:39:33;-3.00;99.90
45339;DHT22;31071;51.478;5.710;2023-03-01T06:41:59;-3.00;99.90
45339;DHT22;31071;51.478;5.710;2023-03-01T06:44:25;-2.70;99.90
45339;DHT22;31071;51.478;5.710;2023-03-01T06:46:50;-3.00;99.90
45339;DHT22;31071;51.478;5.710;2023-03-01T06:49:16;-3.00;99.90
45339;DHT22;31071;51.478;5.710;2023-03-01T06:51:43;-2.90;99.90
45339;DHT22;31071;51.478;5.710;2023-03-01T06:54:09;-2.90;99.90
45339;DHT22;31071;51.478;5.710;2023-03-01T06:56:35;-2.40;99.90
45339;DHT22;31071;51.478;5.710;2023-03-01T06:59:00;-2.80;99.90
45339;DHT22;31071;51.478;5.710;2023-03-01T07:01:28;-2.70;99.90
45339;DHT22;31071;51.478;5.710;2023-03-01T07:03:53;-2.70;99.90
45339;DHT22;31071;51.478;5.710;2023-03-01T07:06:19;-2.20;99.90
45339;DHT22;31071;51.478;5.710;2023-03-01T07:08:44;-2.70;99.90
45339;DHT22;31071;51.478;5.710;2023-03-01T07:11:10;-2.60;99.90
45339;DHT22;31071;51.478;5.710;2023-03-01T07:13:35;-2.40;99.90
45339;DHT22;31071;51.478;5.710;2023-03-01T07:16:01;-2.40;99.90
45339;DHT22;31071;51.478;5.710;2023-03-01T07:18:27;-1.60;99.90
45339;DHT22;31071;51.478;5.710;2023-03-01T07:20:52;-1.40;99.90
45339;DHT22;31071;51.478;5.710;2023-03-01T07:23:18;-0.50;99.90
45339;DHT22;31071;51.478;5.710;2023-03-01T07:25:43;2.00;99.90
45339;DHT22;31071;51.478;5.710;2023-03-01T07:28:09;0.80;99.90
45339;DHT22;31071;51.478;5.710;2023-03-01T07:30:35;0.60;99.90
45339;DHT22;31071;51.478;5.710;2023-03-01T07:33:00;1.90;99.90
45339;DHT22;31071;51.478;5.710;2023-03-01T07:35:27;0.70;99.90
45339;DHT22;31071;51.478;5.710;2023-03-01T07:37:53;2.20;99.90
45339;DHT22;31071;51.478;5.710;2023-03-01T07:40:19;1.20;99.80
45339;DHT22;31071;51.478;5.710;2023-03-01T07:42:44;1.10;99.70
45339;DHT22;31071;51.478;5.710;2023-03-01T07:45:10;1.60;99.50
45339;DHT22;31071;51.478;5.710;2023-03-01T07:47:36;1.70;98.30
45339;DHT22;31071;51.478;5.710;2023-03-01T07:50:03;1.50;98.40
45339;DHT22;31071;51.478;5.710;2023-03-01T07:52:29;1.10;99.30
45339;DHT22;31071;51.478;5.710;2023-03-01T07:54:56;0.80;99.90
45339;DHT22;31071;51.478;5.710;2023-03-01T07:57:21;1.50;99.90
45339;DHT22;31071;51.478;5.710;2023-03-01T07:59:47;1.20;99.90
45339;DHT22;31071;51.478;5.710;2023-03-01T08:02:12;1.10;99.90
45339;DHT22;31071;51.478;5.710;2023-03-01T08:04:38;1.10;99.90
45339;DHT22;31071;51.478;5.710;2023-03-01T08:07:05;1.20;99.90
45339;DHT22;31071;51.478;5.710;2023-03-01T08:09:31;1.20;99.90
45339;DHT22;31071;51.478;5.710;2023-03-01T08:11:57;1.40;99.90
45339;DHT22;31071;51.478;5.710;2023-03-01T08:14:26;1.50;99.90
45339;DHT22;31071;51.478;5.710;2023-03-01T08:16:51;1.70;99.30
45339;DHT22;31071;51.478;5.710;2023-03-01T08:19:17;1.80;98.90
45339;DHT22;31071;51.478;5.710;2023-03-01T08:21:43;1.70;98.70
45339;DHT22;31071;51.478;5.710;2023-03-01T08:24:09;1.70;99.50
45339;DHT22;31071;51.478;5.710;2023-03-01T08:26:37;1.80;99.80
45339;DHT22;31071;51.478;5.710;2023-03-01T08:29:03;3.60;99.20
45339;DHT22;31071;51.478;5.710;2023-03-01T08:31:37;2.80;97.40
45339;DHT22;31071;51.478;5.710;2023-03-01T08:34:06;2.80;96.80
45339;DHT22;31071;51.478;5.710;2023-03-01T08:36:39;2.70;96.70
45339;DHT22;31071;51.478;5.710;2023-03-01T08:39:06;2.80;96.90
45339;DHT22;31071;51.478;5.710;2023-03-01T08:41:32;2.90;96.00
45339;DHT22;31071;51.478;5.710;2023-03-01T08:43:57;3.20;96.40
45339;DHT22;31071;51.478;5.710;2023-03-01T08:46:27;3.90;94.40
45339;DHT22;31071;51.478;5.710;2023-03-01T08:48:53;4.60;92.90
45339;DHT22;31071;51.478;5.710;2023-03-01T08:51:20;5.80;89.00
45339;DHT22;31071;51.478;5.710;2023-03-01T08:53:46;6.40;83.80
45339;DHT22;31071;51.478;5.710;2023-03-01T08:56:12;6.20;82.70
45339;DHT22;31071;51.478;5.710;2023-03-01T08:58:38;6.30;85.60
45339;DHT22;31071;51.478;5.710;2023-03-01T09:01:07;7.00;80.60
45339;DHT22;31071;51.478;5.710;2023-03-01T09:03:33;7.80;76.20
45339;DHT22;31071;51.478;5.710;2023-03-01T09:06:03;9.10;72.00
45339;DHT22;31071;51.478;5.710;2023-03-01T09:08:29;10.70;65.00
45339;DHT22;31071;51.478;5.710;2023-03-01T09:10:55;12.00;58.70
45339;DHT22;31071;51.478;5.710;2023-03-01T09:13:20;12.50;56.50
45339;DHT22;31071;51.478;5.710;2023-03-01T09:15:46;12.70;56.10
45339;DHT22;31071;51.478;5.710;2023-03-01T09:18:11;14.30;52.80
45339;DHT22;31071;51.478;5.710;2023-03-01T09:20:37;13.80;51.40
45339;DHT22;31071;51.478;5.710;2023-03-01T09:23:02;15.10;48.80
45339;DHT22;31071;51.478;5.710;2023-03-01T09:25:28;16.60;47.50
45339;DHT22;31071;51.478;5.710;2023-03-01T09:27:54;16.60;47.60
45339;DHT22;31071;51.478;5.710;2023-03-01T09:30:20;15.10;46.10
45339;DHT22;31071;51.478;5.710;2023-03-01T09:32:47;15.20;46.60
45339;DHT22;31071;51.478;5.710;2023-03-01T09:35:12;15.90;44.30
45339;DHT22;31071;51.478;5.710;2023-03-01T09:37:38;14.90;46.00
45339;DHT22;31071;51.478;5.710;2023-03-01T09:40:17;15.50;45.00
45339;DHT22;31071;51.478;5.710;2023-03-01T09:45:23;15.70;44.60
45339;DHT22;31071;51.478;5.710;2023-03-01T09:47:51;15.90;43.70
45339;DHT22;31071;51.478;5.710;2023-03-01T09:50:21;16.20;42.90
45339;DHT22;31071;51.478;5.710;2023-03-01T09:53:23;15.50;44.00
45339;DHT22;31071;51.478;5.710;2023-03-01T09:56:15;15.50;43.10
45339;DHT22;31071;51.478;5.710;2023-03-01T09:58:49;15.50;44.40
45339;DHT22;31071;51.478;5.710;2023-03-01T10:01:30;16.70;42.30
45339;DHT22;31071;51.478;5.710;2023-03-01T10:06:35;17.50;40.40
45339;DHT22;31071;51.478;5.710;2023-03-01T10:09:12;17.10;40.50
45339;DHT22;31071;51.478;5.710;2023-03-01T10:11:47;17.00;40.10
45339;DHT22;31071;51.478;5.710;2023-03-01T10:17:02;17.30;39.60
45339;DHT22;31071;51.478;5.710;2023-03-01T10:22:03;17.70;38.90
45339;DHT22;31071;51.478;5.710;2023-03-01T10:24:34;17.10;38.30
45339;DHT22;31071;51.478;5.710;2023-03-01T10:30:13;16.30;40.20
45339;DHT22;31071;51.478;5.710;2023-03-01T10:32:36;16.40;39.80
45339;DHT22;31071;51.478;5.710;2023-03-01T10:35:16;16.60;40.80
45339;DHT22;31071;51.478;5.710;2023-03-01T10:40:23;17.30;38.70
45339;DHT22;31071;51.478;5.710;2023-03-01T10:42:49;17.90;37.60
45339;DHT22;31071;51.478;5.710;2023-03-01T10:48:08;18.30;37.50
45339;DHT22;31071;51.478;5.710;2023-03-01T10:50:35;18.30;36.60
45339;DHT22;31071;51.478;5.710;2023-03-01T10:53:04;17.90;36.40
45339;DHT22;31071;51.478;5.710;2023-03-01T10:55:38;17.40;36.40
45339;DHT22;31071;51.478;5.710;2023-03-01T10:58:17;17.50;37.00
45339;DHT22;31071;51.478;5.710;2023-03-01T11:01:03;18.30;36.70
45339;DHT22;31071;51.478;5.710;2023-03-01T11:03:34;18.60;36.90
45339;DHT22;31071;51.478;5.710;2023-03-01T11:06:33;18.70;36.00
45339;DHT22;31071;51.478;5.710;2023-03-01T11:09:37;18.30;35.60
45339;DHT22;31071;51.478;5.710;2023-03-01T11:13:18;18.50;35.50
45339;DHT22;31071;51.478;5.710;2023-03-01T11:16:05;18.30;35.90
45339;DHT22;31071;51.478;5.710;2023-03-01T11:23:36;18.20;36.10
45339;DHT22;31071;51.478;5.710;2023-03-01T11:26:34;17.90;36.30
45339;DHT22;31071;51.478;5.710;2023-03-01T11:29:37;18.10;36.50
45339;DHT22;31071;51.478;5.710;2023-03-01T11:32:08;18.80;35.40
45339;DHT22;31071;51.478;5.710;2023-03-01T11:56:28;19.30;34.10
45339;DHT22;31071;51.478;5.710;2023-03-01T12:01:53;19.40;33.90
45339;DHT22;31071;51.478;5.710;2023-03-01T12:04:50;18.90;34.60
45339;DHT22;31071;51.478;5.710;2023-03-01T12:07:21;18.90;35.10
45339;DHT22;31071;51.478;5.710;2023-03-01T12:19:15;18.60;35.00
45339;DHT22;31071;51.478;5.710;2023-03-01T12:25:18;17.70;35.00
45339;DHT22;31071;51.478;5.710;2023-03-01T12:28:31;17.70;34.90
45339;DHT22;31071;51.478;5.710;2023-03-01T12:31:41;17.60;37.10
45339;DHT22;31071;51.478;5.710;2023-03-01T12:47:20;17.90;35.30
45339;DHT22;31071;51.478;5.710;2023-03-01T13:33:49;17.90;36.20
45339;DHT22;31071;51.478;5.710;2023-03-01T13:46:44;17.00;37.60
45339;DHT22;31071;51.478;5.710;2023-03-01T13:49:15;17.40;37.20
45339;DHT22;31071;51.478;5.710;2023-03-01T13:51:41;18.60;37.50
45339;DHT22;31071;51.478;5.710;2023-03-01T13:54:12;17.30;36.90
45339;DHT22;31071;51.478;5.710;2023-03-01T13:56:39;16.30;38.90
45339;DHT22;31071;51.478;5.710;2023-03-01T13:59:17;16.90;38.90
45339;DHT22;31071;51.478;5.710;2023-03-01T14:01:43;18.40;39.20
45339;DHT22;31071;51.478;5.710;2023-03-01T14:04:35;18.80;39.90
45339;DHT22;31071;51.478;5.710;2023-03-01T14:07:18;18.40;39.40
45339;DHT22;31071;51.478;5.710;2023-03-01T14:09:47;17.00;38.00
45339;DHT22;31071;51.478;5.710;2023-03-01T14:20:40;15.20;39.50
45339;DHT22;31071;51.478;5.710;2023-03-01T14:23:12;16.60;41.00
45339;DHT22;31071;51.478;5.710;2023-03-01T14:25:39;14.90;38.70
45339;DHT22;31071;51.478;5.710;2023-03-01T14:28:21;14.90;39.70
45339;DHT22;31071;51.478;5.710;2023-03-01T14:30:53;14.40;39.90
45339;DHT22;31071;51.478;5.710;2023-03-01T14:33:32;13.80;40.20
45339;DHT22;31071;51.478;5.710;2023-03-01T14:36:09;13.20;41.40
45339;DHT22;31071;51.478;5.710;2023-03-01T14:38:41;13.10;42.60
45339;DHT22;31071;51.478;5.710;2023-03-01T14:41:18;12.70;43.70
45339;DHT22;31071;51.478;5.710;2023-03-01T14:43:50;12.80;43.90
45339;DHT22;31071;51.478;5.710;2023-03-01T14:46:29;12.70;44.10
45339;DHT22;31071;51.478;5.710;2023-03-01T14:49:06;12.70;43.50
45339;DHT22;31071;51.478;5.710;2023-03-01T14:51:40;11.90;44.10
45339;DHT22;31071;51.478;5.710;2023-03-01T14:57:15;10.60;46.90
45339;DHT22;31071;51.478;5.710;2023-03-01T14:59:41;10.70;48.10
45339;DHT22;31071;51.478;5.710;2023-03-01T15:02:17;10.50;47.10
45339;DHT22;31071;51.478;5.710;2023-03-01T15:04:50;10.60;48.20
45339;DHT22;31071;51.478;5.710;2023-03-01T15:07:17;10.50;47.10
45339;DHT22;31071;51.478;5.710;2023-03-01T15:09:43;10.20;48.40
45339;DHT22;31071;51.478;5.710;2023-03-01T15:14:57;9.90;49.00
45339;DHT22;31071;51.478;5.710;2023-03-01T15:17:34;10.30;50.30
45339;DHT22;31071;51.478;5.710;2023-03-01T15:20:04;9.90;49.30
45339;DHT22;31071;51.478;5.710;2023-03-01T15:22:31;9.70;48.70
45339;DHT22;31071;51.478;5.710;2023-03-01T15:24:56;9.70;49.20
45339;DHT22;31071;51.478;5.710;2023-03-01T15:27:24;9.90;49.10
45339;DHT22;31071;51.478;5.710;2023-03-01T15:30:02;9.90;49.70
45339;DHT22;31071;51.478;5.710;2023-03-01T15:32:35;9.90;49.70
45339;DHT22;31071;51.478;5.710;2023-03-01T15:35:43;9.90;49.50
45339;DHT22;31071;51.478;5.710;2023-03-01T15:56:52;9.00;51.10
45339;DHT22;31071;51.478;5.710;2023-03-01T16:14:50;8.50;52.30
45339;DHT22;31071;51.478;5.710;2023-03-01T16:17:24;9.90;53.40
45339;DHT22;31071;51.478;5.710;2023-03-01T16:19:50;8.40;51.90
45339;DHT22;31071;51.478;5.710;2023-03-01T16:22:17;9.30;53.30
45339;DHT22;31071;51.478;5.710;2023-03-01T16:24:53;8.40;53.60
45339;DHT22;31071;51.478;5.710;2023-03-01T16:27:18;8.30;53.20
45339;DHT22;31071;51.478;5.710;2023-03-01T16:29:45;9.70;53.80
45339;DHT22;31071;51.478;5.710;2023-03-01T16:32:11;8.00;53.70
45339;DHT22;31071;51.478;5.710;2023-03-01T16:34:36;9.50;54.40
45339;DHT22;31071;51.478;5.710;2023-03-01T16:37:02;8.10;52.80
45339;DHT22;31071;51.478;5.710;2023-03-01T16:39:27;8.60;53.50
45339;DHT22;31071;51.478;5.710;2023-03-01T16:41:53;7.80;53.40
45339;DHT22;31071;51.478;5.710;2023-03-01T16:44:18;7.70;53.90
45339;DHT22;31071;51.478;5.710;2023-03-01T16:46:46;7.50;55.20
45339;DHT22;31071;51.478;5.710;2023-03-01T16:49:12;7.40;55.10
45339;DHT22;31071;51.478;5.710;2023-03-01T16:51:38;7.30;55.00
45339;DHT22;31071;51.478;5.710;2023-03-01T16:54:03;7.90;57.10
45339;DHT22;31071;51.478;5.710;2023-03-01T16:56:30;7.70;56.90
45339;DHT22;31071;51.478;5.710;2023-03-01T17:01:32;7.20;55.50
45339;DHT22;31071;51.478;5.710;2023-03-01T17:04:05;7.20;57.10
45339;DHT22;31071;51.478;5.710;2023-03-01T17:06:32;7.00;56.20
45339;DHT22;31071;51.478;5.710;2023-03-01T17:08:58;7.60;57.70
45339;DHT22;31071;51.478;5.710;2023-03-01T17:11:24;8.80;58.60
45339;DHT22;31071;51.478;5.710;2023-03-01T17:13:51;6.90;58.40
45339;DHT22;31071;51.478;5.710;2023-03-01T17:16:19;6.50;58.90
45339;DHT22;31071;51.478;5.710;2023-03-01T17:18:45;6.40;59.30
45339;DHT22;31071;51.478;5.710;2023-03-01T17:21:12;6.30;59.50
45339;DHT22;31071;51.478;5.710;2023-03-01T17:23:40;6.20;59.70
45339;DHT22;31071;51.478;5.710;2023-03-01T17:26:06;6.00;60.90
45339;DHT22;31071;51.478;5.710;2023-03-01T17:28:32;6.00;61.00
45339;DHT22;31071;51.478;5.710;2023-03-01T17:31:00;5.90;61.50
45339;DHT22;31071;51.478;5.710;2023-03-01T17:33:28;5.90;61.80
45339;DHT22;31071;51.478;5.710;2023-03-01T17:35:57;5.80;62.30
45339;DHT22;31071;51.478;5.710;2023-03-01T17:38:24;5.60;62.70
45339;DHT22;31071;51.478;5.710;2023-03-01T17:40:49;5.50;63.60
45339;DHT22;31071;51.478;5.710;2023-03-01T17:43:16;5.40;63.10
45339;DHT22;31071;51.478;5.710;2023-03-01T17:45:43;5.40;63.70
45339;DHT22;31071;51.478;5.710;2023-03-01T17:48:13;5.30;64.00
45339;DHT22;31071;51.478;5.710;2023-03-01T17:50:43;5.30;64.30
45339;DHT22;31071;51.478;5.710;2023-03-01T17:53:09;5.20;64.80
45339;DHT22;31071;51.478;5.710;2023-03-01T17:55:37;5.00;65.40
45339;DHT22;31071;51.478;5.710;2023-03-01T17:58:04;4.90;66.00
45339;DHT22;31071;51.478;5.710;2023-03-01T18:00:30;4.80;66.60
45339;DHT22;31071;51.478;5.710;2023-03-01T18:02:56;4.70;66.90
45339;DHT22;31071;51.478;5.710;2023-03-01T18:05:22;5.00;67.80
45339;DHT22;31071;51.478;5.710;2023-03-01T18:07:50;4.40;68.10
45339;DHT22;31071;51.478;5.710;2023-03-01T18:10:16;4.40;68.30
45339;DHT22;31071;51.478;5.710;2023-03-01T18:12:43;4.40;69.50
45339;DHT22;31071;51.478;5.710;2023-03-01T18:15:10;4.30;69.90
45339;DHT22;31071;51.478;5.710;2023-03-01T18:17:36;4.20;69.90
45339;DHT22;31071;51.478;5.710;2023-03-01T18:20:02;4.20;71.20
45339;DHT22;31071;51.478;5.710;2023-03-01T18:22:30;4.10;71.50
45339;DHT22;31071;51.478;5.710;2023-03-01T18:24:56;4.10;71.30
45339;DHT22;31071;51.478;5.710;2023-03-01T18:27:22;4.20;72.00
45339;DHT22;31071;51.478;5.710;2023-03-01T18:29:48;4.00;72.10
45339;DHT22;31071;51.478;5.710;2023-03-01T18:32:14;4.00;71.40
45339;DHT22;31071;51.478;5.710;2023-03-01T18:34:39;4.00;70.90
45339;DHT22;31071;51.478;5.710;2023-03-01T18:37:05;4.00;71.20
45339;DHT22;31071;51.478;5.710;2023-03-01T18:39:32;4.00;71.50
45339;DHT22;31071;51.478;5.710;2023-03-01T18:41:59;4.00;71.30
45339;DHT22;31071;51.478;5.710;2023-03-01T18:44:25;4.00;71.70
45339;DHT22;31071;51.478;5.710;2023-03-01T18:46:50;4.10;72.20
45339;DHT22;31071;51.478;5.710;2023-03-01T18:49:18;3.90;72.70
45339;DHT22;31071;51.478;5.710;2023-03-01T18:51:43;3.70;73.00
45339;DHT22;31071;51.478;5.710;2023-03-01T18:54:12;3.60;73.50
45339;DHT22;31071;51.478;5.710;2023-03-01T18:56:38;3.50;74.10